sensor_id;sensor_type;location;lat;lon;timestamp;temperature;humidity
12682;DHT22;6405;59.208;18.216;2022-09-21T00:01:25;2.50;99.90
12682;DHT22;6405;59.208;18.216;2022-09-21T00:03:58;2.50;99.90
12682;DHT22;6405;59.208;18.216;2022-09-21T00:06:26;2.50;99.90
12682;DHT22;6405;59.208;18.216;2022-09-21T00:08:52;2.50;99.90
12682;DHT22;6405;59.208;18.216;2022-09-21T00:11:22;2.50;99.90
12682;DHT22;6405;59.208;18.216;2022-09-21T00:14:10;2.50;99.90
12682;DHT22;6405;59.208;18.216;2022-09-21T00:16:37;2.50;99.90
12682;DHT22;6405;59.208;18.216;2022-09-21T00:19:04;2.40;99.90
12682;DHT22;6405;59.208;18.216;2022-09-21T00:21:32;2.40;99.90
12682;DHT22;6405;59.208;18.216;2022-09-21T00:23:59;2.40;99.90
12682;DHT22;6405;59.208;18.216;2022-09-21T00:26:28;2.30;99.90
12682;DHT22;6405;59.208;18.216;2022-09-21T00:29:00;2.30;99.90
12682;DHT22;6405;59.208;18.216;2022-09-21T00:31:27;2.30;99.90
12682;DHT22;6405;59.208;18.216;2022-09-21T00:33:54;2.30;99.90
12682;DHT22;6405;59.208;18.216;2022-09-21T00:36:23;2.30;99.90
12682;DHT22;6405;59.208;18.216;2022-09-21T00:38:59;2.20;99.90
12682;DHT22;6405;59.208;18.216;2022-09-21T00:41:29;2.20;99.90
12682;DHT22;6405;59.208;18.216;2022-09-21T00:46:41;2.20;99.90
12682;DHT22;6405;59.208;18.216;2022-09-21T00:49:09;2.20;99.90
12682;DHT22;6405;59.208;18.216;2022-09-21T00:51:37;2.20;99.90
12682;DHT22;6405;59.208;18.216;2022-09-21T00:54:11;2.20;99.90
12682;DHT22;6405;59.208;18.216;2022-09-21T00:56:41;2.20;99.90
12682;DHT22;6405;59.208;18.216;2022-09-21T00:59:11;2.10;99.90
12682;DHT22;6405;59.208;18.216;2022-09-21T01:01:41;2.10;99.90
12682;DHT22;6405;59.208;18.216;2022-09-21T01:04:09;2.10;99.90
12682;DHT22;6405;59.208;18.216;2022-09-21T01:06:37;2.10;99.90
12682;DHT22;6405;59.208;18.216;2022-09-21T01:09:03;2.10;99.90
12682;DHT22;6405;59.208;18.216;2022-09-21T01:18:04;2.10;99.90
12682;DHT22;6405;59.208;18.216;2022-09-21T01:26:12;2.00;99.90
12682;DHT22;6405;59.208;18.216;2022-09-21T01:29:21;2.00;99.90
12682;DHT22;6405;59.208;18.216;2022-09-21T01:37:19;2.00;99.90
12682;DHT22;6405;59.208;18.216;2022-09-21T01:39:49;2.00;99.90
12682;DHT22;6405;59.208;18.216;2022-09-21T01:42:19;2.00;99.90
12682;DHT22;6405;59.208;18.216;2022-09-21T01:44:48;2.00;99.90
12682;DHT22;6405;59.208;18.216;2022-09-21T01:47:16;2.00;99.90
12682;DHT22;6405;59.208;18.216;2022-09-21T01:49:49;1.90;99.90
12682;DHT22;6405;59.208;18.216;2022-09-21T01:52:46;1.90;99.90
12682;DHT22;6405;59.208;18.216;2022-09-21T01:55:23;1.90;99.90
12682;DHT22;6405;59.208;18.216;2022-09-21T02:00:29;1.90;99.90
12682;DHT22;6405;59.208;18.216;2022-09-21T02:05:30;1.80;99.90
12682;DHT22;6405;59.208;18.216;2022-09-21T02:07:59;1.80;99.90
12682;DHT22;6405;59.208;18.216;2022-09-21T02:10:36;1.80;99.90
12682;DHT22;6405;59.208;18.216;2022-09-21T02:13:06;1.80;99.90
12682;DHT22;6405;59.208;18.216;2022-09-21T02:18:20;1.80;99.90
12682;DHT22;6405;59.208;18.216;2022-09-21T02:20:56;1.80;99.90
12682;DHT22;6405;59.208;18.216;2022-09-21T02:23:39;1.70;99.90
12682;DHT22;6405;59.208;18.216;2022-09-21T02:26:20;1.70;99.90
12682;DHT22;6405;59.208;18.216;2022-09-21T02:28:57;1.70;99.90
12682;DHT22;6405;59.208;18.216;2022-09-21T02:34:31;1.70;99.90
12682;DHT22;6405;59.208;18.216;2022-09-21T02:37:07;1.70;99.90
12682;DHT22;6405;59.208;18.216;2022-09-21T02:39:46;1.70;99.90
12682;DHT22;6405;59.208;18.216;2022-09-21T02:42:21;1.70;99.90
12682;DHT22;6405;59.208;18.216;2022-09-21T02:45:17;1.70;99.90
12682;DHT22;6405;59.208;18.216;2022-09-21T02:47:51;1.80;99.90
12682;DHT22;6405;59.208;18.216;2022-09-21T02:50:28;1.80;99.90
12682;DHT22;6405;59.208;18.216;2022-09-21T02:52:59;2.00;99.90
12682;DHT22;6405;59.208;18.216;2022-09-21T02:55:28;2.00;99.90
12682;DHT22;6405;59.208;18.216;2022-09-21T02:57:55;2.10;99.90
12682;DHT22;6405;59.208;18.216;2022-09-21T03:00:23;2.10;99.90
12682;DHT22;6405;59.208;18.216;2022-09-21T03:02:55;2.20;99.90
12682;DHT22;6405;59.208;18.216;2022-09-21T03:05:22;2.30;99.90
12682;DHT22;6405;59.208;18.216;2022-09-21T03:07:49;2.40;99.90
12682;DHT22;6405;59.208;18.216;2022-09-21T03:10:16;2.40;99.90
12682;DHT22;6405;59.208;18.216;2022-09-21T03:12:43;2.50;99.90
12682;DHT22;6405;59.208;18.216;2022-09-21T03:15:11;2.50;99.90
12682;DHT22;6405;59.208;18.216;2022-09-21T03:17:36;2.60;99.90
12682;DHT22;6405;59.208;18.216;2022-09-21T03:20:03;2.70;99.90
12682;DHT22;6405;59.208;18.216;2022-09-21T03:22:30;2.80;99.90
12682;DHT22;6405;59.208;18.216;2022-09-21T03:24:57;2.80;99.90
12682;DHT22;6405;59.208;18.216;2022-09-21T03:27:24;2.90;99.90
12682;DHT22;6405;59.208;18.216;2022-09-21T03:29:51;2.90;99.90
12682;DHT22;6405;59.208;18.216;2022-09-21T03:32:17;3.10;99.90
12682;DHT22;6405;59.208;18.216;2022-09-21T03:34:44;3.10;99.90
12682;DHT22;6405;59.208;18.216;2022-09-21T03:37:11;3.10;99.90
12682;DHT22;6405;59.208;18.216;2022-09-21T03:39:36;3.20;99.90
12682;DHT22;6405;59.208;18.216;2022-09-21T03:42:05;3.30;99.90
12682;DHT22;6405;59.208;18.216;2022-09-21T03:44:33;3.30;99.90
12682;DHT22;6405;59.208;18.216;2022-09-21T03:46:59;3.40;99.90
12682;DHT22;6405;59.208;18.216;2022-09-21T03:49:27;3.40;99.90
12682;DHT22;6405;59.208;18.216;2022-09-21T03:51:54;3.50;99.90
12682;DHT22;6405;59.208;18.216;2022-09-21T03:54:21;3.50;99.90
12682;DHT22;6405;59.208;18.216;2022-09-21T03:56:47;3.60;99.90
12682;DHT22;6405;59.208;18.216;2022-09-21T03:59:16;3.80;99.90
12682;DHT22;6405;59.208;18.216;2022-09-21T04:01:43;3.70;99.90
12682;DHT22;6405;59.208;18.216;2022-09-21T04:04:10;3.70;99.90
12682;DHT22;6405;59.208;18.216;2022-09-21T04:06:36;3.80;99.90
12682;DHT22;6405;59.208;18.216;2022-09-21T04:09:04;3.80;99.90
12682;DHT22;6405;59.208;18.216;2022-09-21T04:11:30;3.80;99.90
12682;DHT22;6405;59.208;18.216;2022-09-21T04:13:58;3.90;99.90
12682;DHT22;6405;59.208;18.216;2022-09-21T04:16:26;3.90;99.90
12682;DHT22;6405;59.208;18.216;2022-09-21T04:18:52;3.90;99.90
12682;DHT22;6405;59.208;18.216;2022-09-21T04:21:18;3.90;99.90
12682;DHT22;6405;59.208;18.216;2022-09-21T04:23:45;4.00;99.90
12682;DHT22;6405;59.208;18.216;2022-09-21T04:26:27;4.10;99.90
12682;DHT22;6405;59.208;18.216;2022-09-21T04:28:55;4.10;99.90
12682;DHT22;6405;59.208;18.216;2022-09-21T04:31:23;4.10;99.90
12682;DHT22;6405;59.208;18.216;2022-09-21T04:33:51;4.20;99.90
12682;DHT22;6405;59.208;18.216;2022-09-21T04:36:19;4.10;99.90
12682;DHT22;6405;59.208;18.216;2022-09-21T04:38:47;4.10;99.90
12682;DHT22;6405;59.208;18.216;2022-09-21T04:41:14;4.20;99.90
12682;DHT22;6405;59.208;18.216;2022-09-21T04:43:43;4.20;99.90
12682;DHT22;6405;59.208;18.216;2022-09-21T04:46:13;4.20;99.90
12682;DHT22;6405;59.208;18.216;2022-09-21T04:48:40;4.20;99.90
12682;DHT22;6405;59.208;18.216;2022-09-21T04:51:07;4.30;99.90
12682;DHT22;6405;59.208;18.216;2022-09-21T04:53:35;4.00;99.90
12682;DHT22;6405;59.208;18.216;2022-09-21T04:56:05;4.20;99.90
12682;DHT22;6405;59.208;18.216;2022-09-21T04:58:32;4.00;99.90
12682;DHT22;6405;59.208;18.216;2022-09-21T05:01:00;3.90;99.90
12682;DHT22;6405;59.208;18.216;2022-09-21T05:03:27;4.10;99.90
12682;DHT22;6405;59.208;18.216;2022-09-21T05:05:55;3.80;99.90
12682;DHT22;6405;59.208;18.216;2022-09-21T05:08:23;3.80;99.90
12682;DHT22;6405;59.208;18.216;2022-09-21T05:11:11;3.70;99.90
12682;DHT22;6405;59.208;18.216;2022-09-21T05:13:41;3.70;99.90
12682;DHT22;6405;59.208;18.216;2022-09-21T05:16:07;3.60;99.90
12682;DHT22;6405;59.208;18.216;2022-09-21T05:18:34;3.60;99.90
12682;DHT22;6405;59.208;18.216;2022-09-21T05:21:02;3.50;99.90
12682;DHT22;6405;59.208;18.216;2022-09-21T05:23:30;3.50;99.90
12682;DHT22;6405;59.208;18.216;2022-09-21T05:25:58;3.50;99.90
12682;DHT22;6405;59.208;18.216;2022-09-21T05:28:25;3.50;99.90
12682;DHT22;6405;59.208;18.216;2022-09-21T05:30:59;3.50;99.90
12682;DHT22;6405;59.208;18.216;2022-09-21T05:33:29;3.50;99.90
12682;DHT22;6405;59.208;18.216;2022-09-21T05:36:36;3.50;99.90
12682;DHT22;6405;59.208;18.216;2022-09-21T05:39:05;3.50;99.90
12682;DHT22;6405;59.208;18.216;2022-09-21T05:41:32;3.50;99.90
12682;DHT22;6405;59.208;18.216;2022-09-21T05:44:00;3.40;99.90
12682;DHT22;6405;59.208;18.216;2022-09-21T05:47:03;3.40;99.90
12682;DHT22;6405;59.208;18.216;2022-09-21T05:51:57;3.40;99.90
12682;DHT22;6405;59.208;18.216;2022-09-21T05:55:01;3.40;99.90
12682;DHT22;6405;59.208;18.216;2022-09-21T06:03:30;3.40;99.90
12682;DHT22;6405;59.208;18.216;2022-09-21T06:05:58;3.40;99.90
12682;DHT22;6405;59.208;18.216;2022-09-21T06:08:25;3.40;99.90
12682;DHT22;6405;59.208;18.216;2022-09-21T06:10:52;3.50;99.90
12682;DHT22;6405;59.208;18.216;2022-09-21T06:13:20;3.50;99.90
12682;DHT22;6405;59.208;18.216;2022-09-21T06:15:46;3.80;99.90
12682;DHT22;6405;59.208;18.216;2022-09-21T06:18:15;3.70;99.90
12682;DHT22;6405;59.208;18.216;2022-09-21T06:20:42;3.80;99.90
12682;DHT22;6405;59.208;18.216;2022-09-21T06:23:12;4.00;99.90
12682;DHT22;6405;59.208;18.216;2022-09-21T06:25:39;4.10;99.90
12682;DHT22;6405;59.208;18.216;2022-09-21T06:28:11;4.10;99.90
12682;DHT22;6405;59.208;18.216;2022-09-21T06:30:38;4.20;99.90
12682;DHT22;6405;59.208;18.216;2022-09-21T06:33:08;4.30;99.90
12682;DHT22;6405;59.208;18.216;2022-09-21T06:35:35;4.40;99.90
12682;DHT22;6405;59.208;18.216;2022-09-21T06:38:04;4.40;99.90
12682;DHT22;6405;59.208;18.216;2022-09-21T06:40:33;4.50;99.90
12682;DHT22;6405;59.208;18.216;2022-09-21T06:43:02;4.60;99.90
12682;DHT22;6405;59.208;18.216;2022-09-21T06:45:29;4.60;99.90
12682;DHT22;6405;59.208;18.216;2022-09-21T06:47:56;4.80;99.90
12682;DHT22;6405;59.208;18.216;2022-09-21T06:50:23;4.80;99.90
12682;DHT22;6405;59.208;18.216;2022-09-21T06:52:49;5.00;99.90
12682;DHT22;6405;59.208;18.216;2022-09-21T06:55:17;5.10;99.90
12682;DHT22;6405;59.208;18.216;2022-09-21T06:57:44;5.30;99.90
12682;DHT22;6405;59.208;18.216;2022-09-21T07:00:12;5.50;99.90
12682;DHT22;6405;59.208;18.216;2022-09-21T07:02:43;5.60;99.90
12682;DHT22;6405;59.208;18.216;2022-09-21T07:05:11;5.70;99.90
12682;DHT22;6405;59.208;18.216;2022-09-21T07:07:37;5.80;99.90
12682;DHT22;6405;59.208;18.216;2022-09-21T07:10:07;5.90;99.90
12682;DHT22;6405;59.208;18.216;2022-09-21T07:12:34;6.10;99.90
12682;DHT22;6405;59.208;18.216;2022-09-21T07:15:04;6.20;99.90
12682;DHT22;6405;59.208;18.216;2022-09-21T07:17:36;6.30;99.90
12682;DHT22;6405;59.208;18.216;2022-09-21T07:20:04;6.30;99.90
12682;DHT22;6405;59.208;18.216;2022-09-21T07:22:31;6.40;99.90
12682;DHT22;6405;59.208;18.216;2022-09-21T07:24:58;6.50;99.90
12682;DHT22;6405;59.208;18.216;2022-09-21T07:27:28;6.60;99.90
12682;DHT22;6405;59.208;18.216;2022-09-21T07:29:55;6.70;99.90
12682;DHT22;6405;59.208;18.216;2022-09-21T07:32:22;6.80;99.90
12682;DHT22;6405;59.208;18.216;2022-09-21T07:34:49;6.90;99.90
12682;DHT22;6405;59.208;18.216;2022-09-21T07:37:17;7.00;99.90
12682;DHT22;6405;59.208;18.216;2022-09-21T07:39:43;7.10;99.90
12682;DHT22;6405;59.208;18.216;2022-09-21T07:42:09;7.20;99.90
12682;DHT22;6405;59.208;18.216;2022-09-21T07:44:36;7.50;99.90
12682;DHT22;6405;59.208;18.216;2022-09-21T07:47:03;7.60;99.90
12682;DHT22;6405;59.208;18.216;2022-09-21T07:49:30;7.70;99.90
12682;DHT22;6405;59.208;18.216;2022-09-21T07:51:57;7.90;99.90
12682;DHT22;6405;59.208;18.216;2022-09-21T07:54:24;7.90;99.90
12682;DHT22;6405;59.208;18.216;2022-09-21T07:56:50;8.00;99.90
12682;DHT22;6405;59.208;18.216;2022-09-21T07:59:36;8.30;99.90
12682;DHT22;6405;59.208;18.216;2022-09-21T08:02:03;8.30;99.90
12682;DHT22;6405;59.208;18.216;2022-09-21T08:04:30;8.40;99.90
12682;DHT22;6405;59.208;18.216;2022-09-21T08:06:57;8.40;99.90
12682;DHT22;6405;59.208;18.216;2022-09-21T08:09:24;8.50;99.90
12682;DHT22;6405;59.208;18.216;2022-09-21T08:11:51;8.70;99.90
12682;DHT22;6405;59.208;18.216;2022-09-21T08:14:20;8.80;99.90
12682;DHT22;6405;59.208;18.216;2022-09-21T08:16:48;9.00;99.90
12682;DHT22;6405;59.208;18.216;2022-09-21T08:19:15;9.30;99.90
12682;DHT22;6405;59.208;18.216;2022-09-21T08:21:42;9.40;99.90
12682;DHT22;6405;59.208;18.216;2022-09-21T08:24:09;9.40;99.90
12682;DHT22;6405;59.208;18.216;2022-09-21T08:26:36;9.50;99.90
12682;DHT22;6405;59.208;18.216;2022-09-21T08:29:02;9.60;99.90
12682;DHT22;6405;59.208;18.216;2022-09-21T08:31:30;9.60;99.90
12682;DHT22;6405;59.208;18.216;2022-09-21T08:33:58;9.70;99.90
12682;DHT22;6405;59.208;18.216;2022-09-21T08:36:25;9.80;99.90
12682;DHT22;6405;59.208;18.216;2022-09-21T08:38:52;9.90;99.90
12682;DHT22;6405;59.208;18.216;2022-09-21T08:44:10;10.00;99.90
12682;DHT22;6405;59.208;18.216;2022-09-21T08:46:40;10.20;99.90
12682;DHT22;6405;59.208;18.216;2022-09-21T08:49:21;10.20;99.90
12682;DHT22;6405;59.208;18.216;2022-09-21T08:51:58;10.20;99.90
12682;DHT22;6405;59.208;18.216;2022-09-21T08:56:55;10.40;99.90
12682;DHT22;6405;59.208;18.216;2022-09-21T08:59:23;10.40;99.90
12682;DHT22;6405;59.208;18.216;2022-09-21T09:09:54;10.50;99.90
12682;DHT22;6405;59.208;18.216;2022-09-21T09:12:49;10.60;99.90
12682;DHT22;6405;59.208;18.216;2022-09-21T09:18:44;10.70;99.90
12682;DHT22;6405;59.208;18.216;2022-09-21T09:21:28;10.70;99.90
12682;DHT22;6405;59.208;18.216;2022-09-21T09:24:22;10.70;99.90
12682;DHT22;6405;59.208;18.216;2022-09-21T09:26:53;10.90;99.90
12682;DHT22;6405;59.208;18.216;2022-09-21T09:29:27;10.90;99.90
12682;DHT22;6405;59.208;18.216;2022-09-21T09:31:57;10.90;99.90
12682;DHT22;6405;59.208;18.216;2022-09-21T09:34:29;11.00;99.90
12682;DHT22;6405;59.208;18.216;2022-09-21T09:37:19;11.00;99.90
12682;DHT22;6405;59.208;18.216;2022-09-21T09:39:54;11.00;99.90
12682;DHT22;6405;59.208;18.216;2022-09-21T09:51:15;11.30;99.90
12682;DHT22;6405;59.208;18.216;2022-09-21T09:53:42;11.30;99.90
12682;DHT22;6405;59.208;18.216;2022-09-21T09:56:09;11.30;99.90
12682;DHT22;6405;59.208;18.216;2022-09-21T09:58:51;11.50;99.90
12682;DHT22;6405;59.208;18.216;2022-09-21T10:01:39;11.50;99.90
12682;DHT22;6405;59.208;18.216;2022-09-21T10:04:12;11.40;99.90
12682;DHT22;6405;59.208;18.216;2022-09-21T10:06:39;11.40;99.90
12682;DHT22;6405;59.208;18.216;2022-09-21T10:11:45;11.50;99.90
12682;DHT22;6405;59.208;18.216;2022-09-21T10:14:18;11.60;99.90
12682;DHT22;6405;59.208;18.216;2022-09-21T10:16:48;11.70;99.90
12682;DHT22;6405;59.208;18.216;2022-09-21T10:19:21;11.90;99.90
12682;DHT22;6405;59.208;18.216;2022-09-21T10:21:56;11.90;99.90
12682;DHT22;6405;59.208;18.216;2022-09-21T10:24:30;12.00;99.90
12682;DHT22;6405;59.208;18.216;2022-09-21T10:27:06;12.10;99.90
12682;DHT22;6405;59.208;18.216;2022-09-21T10:29:46;12.30;99.90
12682;DHT22;6405;59.208;18.216;2022-09-21T10:34:41;12.40;99.90
12682;DHT22;6405;59.208;18.216;2022-09-21T10:37:30;12.50;99.90
12682;DHT22;6405;59.208;18.216;2022-09-21T10:40:00;12.80;99.90
12682;DHT22;6405;59.208;18.216;2022-09-21T10:42:34;12.90;99.90
12682;DHT22;6405;59.208;18.216;2022-09-21T10:45:17;13.00;99.90
12682;DHT22;6405;59.208;18.216;2022-09-21T10:47:50;12.90;99.90
12682;DHT22;6405;59.208;18.216;2022-09-21T10:55:54;12.70;99.90
12682;DHT22;6405;59.208;18.216;2022-09-21T10:58:22;12.40;99.90
12682;DHT22;6405;59.208;18.216;2022-09-21T11:00:50;12.30;99.90
12682;DHT22;6405;59.208;18.216;2022-09-21T11:03:38;12.20;99.90
12682;DHT22;6405;59.208;18.216;2022-09-21T11:06:15;12.10;99.90
12682;DHT22;6405;59.208;18.216;2022-09-21T11:17:06;12.80;99.90
12682;DHT22;6405;59.208;18.216;2022-09-21T11:25:33;13.10;99.90
12682;DHT22;6405;59.208;18.216;2022-09-21T11:28:30;13.40;99.90
12682;DHT22;6405;59.208;18.216;2022-09-21T11:34:05;13.70;99.90
12682;DHT22;6405;59.208;18.216;2022-09-21T11:36:45;13.70;99.90
12682;DHT22;6405;59.208;18.216;2022-09-21T11:39:47;13.80;99.90
12682;DHT22;6405;59.208;18.216;2022-09-21T11:42:30;13.80;99.90
12682;DHT22;6405;59.208;18.216;2022-09-21T11:45:04;13.80;99.90
12682;DHT22;6405;59.208;18.216;2022-09-21T11:48:02;13.70;99.90
12682;DHT22;6405;59.208;18.216;2022-09-21T11:54:06;13.70;99.90
12682;DHT22;6405;59.208;18.216;2022-09-21T11:56:57;13.80;99.90
12682;DHT22;6405;59.208;18.216;2022-09-21T12:02:15;14.00;99.90
12682;DHT22;6405;59.208;18.216;2022-09-21T12:05:47;14.20;99.90
12682;DHT22;6405;59.208;18.216;2022-09-21T12:08:15;14.40;99.90
12682;DHT22;6405;59.208;18.216;2022-09-21T12:16:12;15.10;99.90
12682;DHT22;6405;59.208;18.216;2022-09-21T12:21:26;15.10;99.90
12682;DHT22;6405;59.208;18.216;2022-09-21T12:23:58;14.90;99.90
12682;DHT22;6405;59.208;18.216;2022-09-21T12:26:39;14.70;99.90
12682;DHT22;6405;59.208;18.216;2022-09-21T12:29:25;14.90;99.90
12682;DHT22;6405;59.208;18.216;2022-09-21T12:32:43;15.00;99.90
12682;DHT22;6405;59.208;18.216;2022-09-21T12:34:56;15.10;99.90
12682;DHT22;6405;59.208;18.216;2022-09-21T12:37:46;15.10;99.90
12682;DHT22;6405;59.208;18.216;2022-09-21T12:40:41;15.10;99.90
12682;DHT22;6405;59.208;18.216;2022-09-21T12:43:27;15.10;99.90
12682;DHT22;6405;59.208;18.216;2022-09-21T12:46:03;15.00;99.90
12682;DHT22;6405;59.208;18.216;2022-09-21T12:48:36;14.60;99.90
12682;DHT22;6405;59.208;18.216;2022-09-21T12:51:30;14.30;99.90
12682;DHT22;6405;59.208;18.216;2022-09-21T12:54:12;13.90;99.90
12682;DHT22;6405;59.208;18.216;2022-09-21T12:57:06;13.50;99.90
12682;DHT22;6405;59.208;18.216;2022-09-21T12:59:51;13.20;99.90
12682;DHT22;6405;59.208;18.216;2022-09-21T13:02:40;13.30;99.90
12682;DHT22;6405;59.208;18.216;2022-09-21T13:08:06;13.50;99.90
12682;DHT22;6405;59.208;18.216;2022-09-21T13:13:34;13.80;99.90
12682;DHT22;6405;59.208;18.216;2022-09-21T13:16:05;13.90;99.90
12682;DHT22;6405;59.208;18.216;2022-09-21T13:18:34;14.00;99.90
12682;DHT22;6405;59.208;18.216;2022-09-21T13:21:26;14.10;99.90
12682;DHT22;6405;59.208;18.216;2022-09-21T13:24:00;14.30;99.90
12682;DHT22;6405;59.208;18.216;2022-09-21T13:26:38;14.30;99.90
12682;DHT22;6405;59.208;18.216;2022-09-21T13:29:26;14.50;99.90
12682;DHT22;6405;59.208;18.216;2022-09-21T13:31:56;14.60;99.90
12682;DHT22;6405;59.208;18.216;2022-09-21T13:34:27;14.80;99.90
12682;DHT22;6405;59.208;18.216;2022-09-21T13:39:47;15.00;99.90
12682;DHT22;6405;59.208;18.216;2022-09-21T13:48:16;14.90;99.90
12682;DHT22;6405;59.208;18.216;2022-09-21T13:50:44;14.70;99.90
12682;DHT22;6405;59.208;18.216;2022-09-21T13:55:54;14.70;99.90
12682;DHT22;6405;59.208;18.216;2022-09-21T13:58:35;14.70;99.90
12682;DHT22;6405;59.208;18.216;2022-09-21T14:01:32;14.90;99.90
12682;DHT22;6405;59.208;18.216;2022-09-21T14:04:03;15.00;99.90
12682;DHT22;6405;59.208;18.216;2022-09-21T14:06:33;15.10;99.90
12682;DHT22;6405;59.208;18.216;2022-09-21T14:09:05;15.10;99.90
12682;DHT22;6405;59.208;18.216;2022-09-21T14:11:37;14.90;99.90
12682;DHT22;6405;59.208;18.216;2022-09-21T14:24:49;14.50;99.90
12682;DHT22;6405;59.208;18.216;2022-09-21T14:27:43;14.50;99.90
12682;DHT22;6405;59.208;18.216;2022-09-21T14:30:25;14.40;99.90
12682;DHT22;6405;59.208;18.216;2022-09-21T14:35:40;14.10;99.90
12682;DHT22;6405;59.208;18.216;2022-09-21T14:38:22;13.80;99.90
12682;DHT22;6405;59.208;18.216;2022-09-21T14:40:55;13.50;99.90
12682;DHT22;6405;59.208;18.216;2022-09-21T14:43:28;13.40;99.90
12682;DHT22;6405;59.208;18.216;2022-09-21T14:49:21;13.20;99.90
12682;DHT22;6405;59.208;18.216;2022-09-21T14:52:34;13.20;99.90
12682;DHT22;6405;59.208;18.216;2022-09-21T14:55:24;13.10;99.90
12682;DHT22;6405;59.208;18.216;2022-09-21T14:58:28;13.00;99.90
12682;DHT22;6405;59.208;18.216;2022-09-21T15:10:33;12.60;99.90
12682;DHT22;6405;59.208;18.216;2022-09-21T15:19:13;12.30;99.90
12682;DHT22;6405;59.208;18.216;2022-09-21T15:21:50;12.30;99.90
12682;DHT22;6405;59.208;18.216;2022-09-21T15:26:55;12.10;99.90
12682;DHT22;6405;59.208;18.216;2022-09-21T15:29:29;12.00;99.90
12682;DHT22;6405;59.208;18.216;2022-09-21T15:31:59;11.90;99.90
12682;DHT22;6405;59.208;18.216;2022-09-21T15:34:26;11.80;99.90
12682;DHT22;6405;59.208;18.216;2022-09-21T15:37:05;11.70;99.90
12682;DHT22;6405;59.208;18.216;2022-09-21T15:39:32;11.60;99.90
12682;DHT22;6405;59.208;18.216;2022-09-21T15:42:17;11.50;99.90
12682;DHT22;6405;59.208;18.216;2022-09-21T15:44:47;11.40;99.90
12682;DHT22;6405;59.208;18.216;2022-09-21T15:47:20;11.20;99.90
12682;DHT22;6405;59.208;18.216;2022-09-21T15:49:48;11.20;99.90
12682;DHT22;6405;59.208;18.216;2022-09-21T15:52:25;11.10;99.90
12682;DHT22;6405;59.208;18.216;2022-09-21T15:55:00;11.00;99.90
12682;DHT22;6405;59.208;18.216;2022-09-21T15:57:38;10.90;99.90
12682;DHT22;6405;59.208;18.216;2022-09-21T16:02:57;10.70;99.90
12682;DHT22;6405;59.208;18.216;2022-09-21T16:05:25;10.70;99.90
12682;DHT22;6405;59.208;18.216;2022-09-21T16:08:04;10.50;99.90
12682;DHT22;6405;59.208;18.216;2022-09-21T16:10:39;10.40;99.90
12682;DHT22;6405;59.208;18.216;2022-09-21T16:13:17;10.30;99.90
12682;DHT22;6405;59.208;18.216;2022-09-21T16:16:09;10.30;99.90
12682;DHT22;6405;59.208;18.216;2022-09-21T16:18:46;10.20;99.90
12682;DHT22;6405;59.208;18.216;2022-09-21T16:21:20;10.10;99.90
12682;DHT22;6405;59.208;18.216;2022-09-21T16:23:49;10.00;99.90
12682;DHT22;6405;59.208;18.216;2022-09-21T16:26:25;9.90;99.90
12682;DHT22;6405;59.208;18.216;2022-09-21T16:29:16;9.80;99.90
12682;DHT22;6405;59.208;18.216;2022-09-21T16:31:44;9.70;99.90
12682;DHT22;6405;59.208;18.216;2022-09-21T16:36:43;9.50;99.90
12682;DHT22;6405;59.208;18.216;2022-09-21T16:39:13;9.40;99.90
12682;DHT22;6405;59.208;18.216;2022-09-21T16:41:46;9.30;99.90
12682;DHT22;6405;59.208;18.216;2022-09-21T16:44:16;9.30;99.90
12682;DHT22;6405;59.208;18.216;2022-09-21T16:46:47;9.20;99.90
12682;DHT22;6405;59.208;18.216;2022-09-21T16:49:16;9.10;99.90
12682;DHT22;6405;59.208;18.216;2022-09-21T16:51:48;8.90;99.90
12682;DHT22;6405;59.208;18.216;2022-09-21T16:54:17;8.90;99.90
12682;DHT22;6405;59.208;18.216;2022-09-21T16:56:44;8.80;99.90
12682;DHT22;6405;59.208;18.216;2022-09-21T16:59:17;8.70;99.90
12682;DHT22;6405;59.208;18.216;2022-09-21T17:01:54;8.60;99.90
12682;DHT22;6405;59.208;18.216;2022-09-21T17:04:25;8.50;99.90
12682;DHT22;6405;59.208;18.216;2022-09-21T17:06:52;8.30;99.90
12682;DHT22;6405;59.208;18.216;2022-09-21T17:09:31;8.30;99.90
12682;DHT22;6405;59.208;18.216;2022-09-21T17:11:59;8.20;99.90
12682;DHT22;6405;59.208;18.216;2022-09-21T17:14:28;8.10;99.90
12682;DHT22;6405;59.208;18.216;2022-09-21T17:16:59;8.00;99.90
12682;DHT22;6405;59.208;18.216;2022-09-21T17:19:26;8.00;99.90
12682;DHT22;6405;59.208;18.216;2022-09-21T17:21:52;8.10;99.90
12682;DHT22;6405;59.208;18.216;2022-09-21T17:24:20;7.80;99.90
12682;DHT22;6405;59.208;18.216;2022-09-21T17:26:47;7.70;99.90
12682;DHT22;6405;59.208;18.216;2022-09-21T17:29:21;7.70;99.90
12682;DHT22;6405;59.208;18.216;2022-09-21T17:31:49;7.60;99.90
12682;DHT22;6405;59.208;18.216;2022-09-21T17:34:21;7.50;99.90
12682;DHT22;6405;59.208;18.216;2022-09-21T17:36:49;7.40;99.90
12682;DHT22;6405;59.208;18.216;2022-09-21T17:39:17;7.30;99.90
12682;DHT22;6405;59.208;18.216;2022-09-21T17:49:42;7.10;99.90
12682;DHT22;6405;59.208;18.216;2022-09-21T17:52:16;7.00;99.90
12682;DHT22;6405;59.208;18.216;2022-09-21T17:55:01;6.90;99.90
12682;DHT22;6405;59.208;18.216;2022-09-21T17:57:39;6.90;99.90
12682;DHT22;6405;59.208;18.216;2022-09-21T18:02:40;6.70;99.90
12682;DHT22;6405;59.208;18.216;2022-09-21T18:05:24;6.70;99.90
12682;DHT22;6405;59.208;18.216;2022-09-21T18:07:51;6.60;99.90
12682;DHT22;6405;59.208;18.216;2022-09-21T18:10:23;6.50;99.90
12682;DHT22;6405;59.208;18.216;2022-09-21T18:18:18;6.40;99.90
12682;DHT22;6405;59.208;18.216;2022-09-21T18:20:57;6.30;99.90
12682;DHT22;6405;59.208;18.216;2022-09-21T18:26:23;6.20;99.90
12682;DHT22;6405;59.208;18.216;2022-09-21T18:28:50;6.10;99.90
12682;DHT22;6405;59.208;18.216;2022-09-21T18:32:42;6.10;99.90
12682;DHT22;6405;59.208;18.216;2022-09-21T18:46:06;5.80;99.90
12682;DHT22;6405;59.208;18.216;2022-09-21T18:49:08;5.70;99.90
12682;DHT22;6405;59.208;18.216;2022-09-21T18:54:26;5.70;99.90
12682;DHT22;6405;59.208;18.216;2022-09-21T18:56:53;5.60;99.90
12682;DHT22;6405;59.208;18.216;2022-09-21T18:59:22;5.60;99.90
12682;DHT22;6405;59.208;18.216;2022-09-21T19:01:48;5.50;99.90
12682;DHT22;6405;59.208;18.216;2022-09-21T19:04:16;5.50;99.90
12682;DHT22;6405;59.208;18.216;2022-09-21T19:07:03;5.40;99.90
12682;DHT22;6405;59.208;18.216;2022-09-21T19:09:41;5.40;99.90
12682;DHT22;6405;59.208;18.216;2022-09-21T19:12:17;5.40;99.90
12682;DHT22;6405;59.208;18.216;2022-09-21T19:14:50;5.40;99.90
12682;DHT22;6405;59.208;18.216;2022-09-21T19:17:49;5.30;99.90
12682;DHT22;6405;59.208;18.216;2022-09-21T19:26:15;5.20;99.90
12682;DHT22;6405;59.208;18.216;2022-09-21T19:29:27;5.20;99.90
12682;DHT22;6405;59.208;18.216;2022-09-21T19:31:49;5.10;99.90
12682;DHT22;6405;59.208;18.216;2022-09-21T19:34:17;5.10;99.90
12682;DHT22;6405;59.208;18.216;2022-09-21T19:36:45;5.00;99.90
12682;DHT22;6405;59.208;18.216;2022-09-21T19:39:15;5.00;99.90
12682;DHT22;6405;59.208;18.216;2022-09-21T19:44:39;4.90;99.90